sensor_id;sensor_type;location;lat;lon;timestamp;P1;durP1;ratioP1;P2;durP2;ratioP2
20144;SDS011;10233;50.814;6.590;2023-03-01T00:00:36;9.00;;;5.20;;
20144;SDS011;10233;50.814;6.590;2023-03-01T00:01:36;8.43;;;4.90;;
20144;SDS011;10233;50.814;6.590;2023-03-01T00:02:37;10.80;;;5.20;;
20144;SDS011;10233;50.814;6.590;2023-03-01T00:03:37;10.17;;;5.47;;
20144;SDS011;10233;50.814;6.590;2023-03-01T00:04:38;12.07;;;6.22;;
20144;SDS011;10233;50.814;6.590;2023-03-01T00:05:45;11.17;;;5.90;;
20144;SDS011;10233;50.814;6.590;2023-03-01T00:06:46;10.43;;;5.82;;
20144;SDS011;10233;50.814;6.590;2023-03-01T00:07:47;10.02;;;5.38;;
20144;SDS011;10233;50.814;6.590;2023-03-01T00:08:48;13.02;;;6.10;;
20144;SDS011;10233;50.814;6.590;2023-03-01T00:09:48;12.90;;;6.43;;
20144;SDS011;10233;50.814;6.590;2023-03-01T00:10:49;14.30;;;6.73;;
20144;SDS011;10233;50.814;6.590;2023-03-01T00:11:52;12.73;;;6.65;;
20144;SDS011;10233;50.814;6.590;2023-03-01T00:12:53;13.63;;;6.40;;
20144;SDS011;10233;50.814;6.590;2023-03-01T00:13:55;13.82;;;6.15;;
20144;SDS011;10233;50.814;6.590;2023-03-01T00:14:57;13.35;;;6.10;;
20144;SDS011;10233;50.814;6.590;2023-03-01T00:15:57;13.70;;;6.47;;
20144;SDS011;10233;50.814;6.590;2023-03-01T00:16:58;12.63;;;6.55;;
20144;SDS011;10233;50.814;6.590;2023-03-01T00:17:58;11.60;;;6.77;;
20144;SDS011;10233;50.814;6.590;2023-03-01T00:18:59;13.23;;;6.55;;
20144;SDS011;10233;50.814;6.590;2023-03-01T00:20:00;11.05;;;5.95;;
20144;SDS011;10233;50.814;6.590;2023-03-01T00:21:01;10.23;;;5.77;;
20144;SDS011;10233;50.814;6.590;2023-03-01T00:22:02;9.40;;;5.53;;
20144;SDS011;10233;50.814;6.590;2023-03-01T00:23:03;11.27;;;5.80;;
20144;SDS011;10233;50.814;6.590;2023-03-01T00:24:03;8.52;;;4.82;;
20144;SDS011;10233;50.814;6.590;2023-03-01T00:25:04;8.45;;;5.22;;
20144;SDS011;10233;50.814;6.590;2023-03-01T00:26:06;10.77;;;5.70;;
20144;SDS011;10233;50.814;6.590;2023-03-01T00:27:08;8.75;;;4.90;;
20144;SDS011;10233;50.814;6.590;2023-03-01T00:28:09;9.90;;;5.40;;
20144;SDS011;10233;50.814;6.590;2023-03-01T00:29:12;8.90;;;5.07;;
20144;SDS011;10233;50.814;6.590;2023-03-01T00:30:13;10.07;;;5.45;;
20144;SDS011;10233;50.814;6.590;2023-03-01T00:31:15;7.27;;;4.50;;
20144;SDS011;10233;50.814;6.590;2023-03-01T00:32:17;9.37;;;5.17;;
20144;SDS011;10233;50.814;6.590;2023-03-01T00:33:18;9.20;;;5.17;;
20144;SDS011;10233;50.814;6.590;2023-03-01T00:34:19;9.10;;;5.20;;
20144;SDS011;10233;50.814;6.590;2023-03-01T00:35:19;10.95;;;5.57;;
20144;SDS011;10233;50.814;6.590;2023-03-01T00:36:20;9.37;;;5.53;;
20144;SDS011;10233;50.814;6.590;2023-03-01T00:37:21;8.52;;;4.78;;
20144;SDS011;10233;50.814;6.590;2023-03-01T00:38:21;9.65;;;5.18;;
20144;SDS011;10233;50.814;6.590;2023-03-01T00:39:22;10.75;;;5.32;;
20144;SDS011;10233;50.814;6.590;2023-03-01T00:40:29;10.17;;;5.50;;
20144;SDS011;10233;50.814;6.590;2023-03-01T00:41:31;10.87;;;5.50;;
20144;SDS011;10233;50.814;6.590;2023-03-01T00:42:34;9.35;;;5.13;;
20144;SDS011;10233;50.814;6.590;2023-03-01T00:43:35;8.18;;;5.18;;
20144;SDS011;10233;50.814;6.590;2023-03-01T00:44:39;10.18;;;5.25;;
20144;SDS011;10233;50.814;6.590;2023-03-01T00:45:39;9.75;;;5.55;;
20144;SDS011;10233;50.814;6.590;2023-03-01T00:46:40;7.65;;;4.97;;
20144;SDS011;10233;50.814;6.590;2023-03-01T00:47:41;10.97;;;5.40;;
20144;SDS011;10233;50.814;6.590;2023-03-01T00:48:41;9.75;;;5.47;;
20144;SDS011;10233;50.814;6.590;2023-03-01T00:49:42;9.38;;;5.55;;
20144;SDS011;10233;50.814;6.590;2023-03-01T00:50:43;9.37;;;5.50;;
20144;SDS011;10233;50.814;6.590;2023-03-01T00:51:43;7.93;;;4.77;;
20144;SDS011;10233;50.814;6.590;2023-03-01T00:52:44;11.37;;;4.87;;
20144;SDS011;10233;50.814;6.590;2023-03-01T00:53:45;8.60;;;5.28;;
20144;SDS011;10233;50.814;6.590;2023-03-01T00:54:46;8.10;;;4.65;;
20144;SDS011;10233;50.814;6.590;2023-03-01T00:55:47;10.52;;;5.57;;
20144;SDS011;10233;50.814;6.590;2023-03-01T00:56:47;10.97;;;5.23;;
20144;SDS011;10233;50.814;6.590;2023-03-01T00:57:48;7.87;;;4.77;;
20144;SDS011;10233;50.814;6.590;2023-03-01T00:58:48;9.90;;;5.45;;
20144;SDS011;10233;50.814;6.590;2023-03-01T00:59:49;8.77;;;4.90;;
20144;SDS011;10233;50.814;6.590;2023-03-01T01:00:50;8.50;;;5.00;;
20144;SDS011;10233;50.814;6.590;2023-03-01T01:01:50;10.30;;;4.95;;
20144;SDS011;10233;50.814;6.590;2023-03-01T01:02:53;9.02;;;4.80;;
20144;SDS011;10233;50.814;6.590;2023-03-01T01:03:55;13.53;;;5.70;;
20144;SDS011;10233;50.814;6.590;2023-03-01T01:04:57;9.82;;;5.30;;
20144;SDS011;10233;50.814;6.590;2023-03-01T01:05:58;8.45;;;4.55;;
20144;SDS011;10233;50.814;6.590;2023-03-01T01:06:58;8.07;;;4.97;;
20144;SDS011;10233;50.814;6.590;2023-03-01T01:07:58;9.50;;;5.30;;
20144;SDS011;10233;50.814;6.590;2023-03-01T01:08:59;9.00;;;5.27;;
20144;SDS011;10233;50.814;6.590;2023-03-01T01:10:00;9.47;;;5.10;;
20144;SDS011;10233;50.814;6.590;2023-03-01T01:11:00;6.55;;;4.47;;
20144;SDS011;10233;50.814;6.590;2023-03-01T01:12:01;10.23;;;4.97;;
20144;SDS011;10233;50.814;6.590;2023-03-01T01:13:03;8.07;;;4.90;;
20144;SDS011;10233;50.814;6.590;2023-03-01T01:14:03;8.77;;;4.73;;
20144;SDS011;10233;50.814;6.590;2023-03-01T01:15:04;8.97;;;4.93;;
20144;SDS011;10233;50.814;6.590;2023-03-01T01:16:05;8.45;;;4.60;;
20144;SDS011;10233;50.814;6.590;2023-03-01T01:17:07;8.90;;;5.20;;
20144;SDS011;10233;50.814;6.590;2023-03-01T01:18:07;9.85;;;4.95;;
20144;SDS011;10233;50.814;6.590;2023-03-01T01:19:09;8.77;;;5.13;;
20144;SDS011;10233;50.814;6.590;2023-03-01T01:20:11;8.80;;;4.93;;
20144;SDS011;10233;50.814;6.590;2023-03-01T01:21:13;9.63;;;5.20;;
20144;SDS011;10233;50.814;6.590;2023-03-01T01:22:15;8.80;;;4.85;;
20144;SDS011;10233;50.814;6.590;2023-03-01T01:23:15;9.90;;;5.30;;
20144;SDS011;10233;50.814;6.590;2023-03-01T01:24:16;7.68;;;4.78;;
20144;SDS011;10233;50.814;6.590;2023-03-01T01:25:17;9.52;;;5.10;;
20144;SDS011;10233;50.814;6.590;2023-03-01T01:26:20;9.63;;;5.50;;
20144;SDS011;10233;50.814;6.590;2023-03-01T01:27:25;8.80;;;5.10;;
20144;SDS011;10233;50.814;6.590;2023-03-01T01:28:25;8.23;;;4.60;;
20144;SDS011;10233;50.814;6.590;2023-03-01T01:29:29;10.10;;;5.07;;
20144;SDS011;10233;50.814;6.590;2023-03-01T01:30:29;9.15;;;5.30;;
20144;SDS011;10233;50.814;6.590;2023-03-01T01:31:30;9.20;;;4.90;;
20144;SDS011;10233;50.814;6.590;2023-03-01T01:32:31;10.30;;;5.10;;
20144;SDS011;10233;50.814;6.590;2023-03-01T01:33:32;9.93;;;5.07;;
20144;SDS011;10233;50.814;6.590;2023-03-01T01:34:34;9.85;;;5.05;;
20144;SDS011;10233;50.814;6.590;2023-03-01T01:35:34;8.97;;;4.60;;
20144;SDS011;10233;50.814;6.590;2023-03-01T01:36:35;10.43;;;5.28;;
20144;SDS011;10233;50.814;6.590;2023-03-01T01:37:35;9.43;;;5.50;;
20144;SDS011;10233;50.814;6.590;2023-03-01T01:38:36;8.30;;;4.80;;
20144;SDS011;10233;50.814;6.590;2023-03-01T01:39:38;9.45;;;5.30;;
20144;SDS011;10233;50.814;6.590;2023-03-01T01:40:45;9.10;;;4.63;;
20144;SDS011;10233;50.814;6.590;2023-03-01T01:41:46;10.82;;;5.15;;
20144;SDS011;10233;50.814;6.590;2023-03-01T01:42:47;10.85;;;5.40;;
20144;SDS011;10233;50.814;6.590;2023-03-01T01:43:49;12.43;;;5.35;;
20144;SDS011;10233;50.814;6.590;2023-03-01T01:46:30;10.10;;;4.90;;
20144;SDS011;10233;50.814;6.590;2023-03-01T01:47:32;10.13;;;5.35;;
20144;SDS011;10233;50.814;6.590;2023-03-01T01:48:37;8.20;;;4.57;;
20144;SDS011;10233;50.814;6.590;2023-03-01T01:51:01;9.70;;;5.03;;
20144;SDS011;10233;50.814;6.590;2023-03-01T01:52:09;9.33;;;4.73;;
20144;SDS011;10233;50.814;6.590;2023-03-01T01:53:16;8.18;;;4.85;;
20144;SDS011;10233;50.814;6.590;2023-03-01T01:54:30;10.75;;;5.15;;
20144;SDS011;10233;50.814;6.590;2023-03-01T01:55:39;8.85;;;4.38;;
20144;SDS011;10233;50.814;6.590;2023-03-01T01:56:46;9.25;;;5.57;;
20144;SDS011;10233;50.814;6.590;2023-03-01T01:57:53;10.20;;;5.00;;
20144;SDS011;10233;50.814;6.590;2023-03-01T01:58:57;8.23;;;4.53;;
20144;SDS011;10233;50.814;6.590;2023-03-01T01:59:58;7.60;;;4.67;;
20144;SDS011;10233;50.814;6.590;2023-03-01T02:01:13;9.15;;;5.00;;
20144;SDS011;10233;50.814;6.590;2023-03-01T02:02:14;8.27;;;5.00;;
20144;SDS011;10233;50.814;6.590;2023-03-01T02:03:15;9.37;;;4.73;;
20144;SDS011;10233;50.814;6.590;2023-03-01T02:04:21;9.00;;;5.38;;
20144;SDS011;10233;50.814;6.590;2023-03-01T02:05:39;10.30;;;4.90;;
20144;SDS011;10233;50.814;6.590;2023-03-01T02:06:52;11.55;;;5.25;;
20144;SDS011;10233;50.814;6.590;2023-03-01T02:07:58;9.20;;;4.82;;
20144;SDS011;10233;50.814;6.590;2023-03-01T02:09:00;7.90;;;4.70;;
20144;SDS011;10233;50.814;6.590;2023-03-01T02:10:05;8.98;;;5.15;;
20144;SDS011;10233;50.814;6.590;2023-03-01T02:11:06;9.27;;;4.90;;
20144;SDS011;10233;50.814;6.590;2023-03-01T02:12:08;11.40;;;5.72;;
20144;SDS011;10233;50.814;6.590;2023-03-01T02:13:09;8.98;;;4.82;;
20144;SDS011;10233;50.814;6.590;2023-03-01T02:14:10;10.30;;;5.50;;
20144;SDS011;10233;50.814;6.590;2023-03-01T02:15:11;7.43;;;4.30;;
20144;SDS011;10233;50.814;6.590;2023-03-01T02:16:12;9.63;;;5.00;;
20144;SDS011;10233;50.814;6.590;2023-03-01T02:17:16;8.98;;;4.43;;
20144;SDS011;10233;50.814;6.590;2023-03-01T02:18:18;9.10;;;4.75;;
20144;SDS011;10233;50.814;6.590;2023-03-01T02:19:26;8.57;;;4.70;;
20144;SDS011;10233;50.814;6.590;2023-03-01T02:22:36;12.00;;;5.32;;
20144;SDS011;10233;50.814;6.590;2023-03-01T02:23:38;8.90;;;4.88;;
20144;SDS011;10233;50.814;6.590;2023-03-01T02:27:05;8.70;;;5.03;;
20144;SDS011;10233;50.814;6.590;2023-03-01T02:29:13;8.00;;;4.40;;
20144;SDS011;10233;50.814;6.590;2023-03-01T02:30:14;9.07;;;4.72;;
20144;SDS011;10233;50.814;6.590;2023-03-01T02:31:16;10.35;;;5.00;;
20144;SDS011;10233;50.814;6.590;2023-03-01T02:32:39;7.37;;;4.70;;
20144;SDS011;10233;50.814;6.590;2023-03-01T02:33:41;9.80;;;4.97;;
20144;SDS011;10233;50.814;6.590;2023-03-01T02:34:44;10.02;;;4.78;;
20144;SDS011;10233;50.814;6.590;2023-03-01T02:35:44;8.67;;;4.63;;
20144;SDS011;10233;50.814;6.590;2023-03-01T02:36:47;8.23;;;4.63;;
20144;SDS011;10233;50.814;6.590;2023-03-01T02:37:49;9.17;;;5.30;;
20144;SDS011;10233;50.814;6.590;2023-03-01T02:38:51;8.30;;;4.77;;
20144;SDS011;10233;50.814;6.590;2023-03-01T02:39:58;8.23;;;4.65;;
20144;SDS011;10233;50.814;6.590;2023-03-01T02:41:03;8.23;;;4.97;;
20144;SDS011;10233;50.814;6.590;2023-03-01T02:42:08;10.05;;;5.10;;
20144;SDS011;10233;50.814;6.590;2023-03-01T02:43:13;10.30;;;5.18;;
20144;SDS011;10233;50.814;6.590;2023-03-01T02:44:18;8.13;;;4.88;;
20144;SDS011;10233;50.814;6.590;2023-03-01T02:45:19;8.98;;;5.28;;
20144;SDS011;10233;50.814;6.590;2023-03-01T02:46:21;9.52;;;5.22;;
20144;SDS011;10233;50.814;6.590;2023-03-01T02:47:23;9.80;;;5.25;;
20144;SDS011;10233;50.814;6.590;2023-03-01T02:48:24;8.98;;;4.93;;
20144;SDS011;10233;50.814;6.590;2023-03-01T02:49:26;8.10;;;4.80;;
20144;SDS011;10233;50.814;6.590;2023-03-01T02:51:34;9.23;;;5.07;;
20144;SDS011;10233;50.814;6.590;2023-03-01T02:52:47;8.63;;;4.82;;
20144;SDS011;10233;50.814;6.590;2023-03-01T02:55:34;11.00;;;4.80;;
20144;SDS011;10233;50.814;6.590;2023-03-01T02:56:35;7.60;;;4.63;;
20144;SDS011;10233;50.814;6.590;2023-03-01T02:57:37;9.60;;;5.13;;
20144;SDS011;10233;50.814;6.590;2023-03-01T02:58:41;8.48;;;4.80;;
20144;SDS011;10233;50.814;6.590;2023-03-01T02:59:52;9.30;;;5.05;;
20144;SDS011;10233;50.814;6.590;2023-03-01T03:00:54;8.10;;;4.50;;
20144;SDS011;10233;50.814;6.590;2023-03-01T03:01:57;9.68;;;4.90;;
20144;SDS011;10233;50.814;6.590;2023-03-01T03:02:58;11.05;;;5.53;;
20144;SDS011;10233;50.814;6.590;2023-03-01T03:03:59;9.30;;;5.13;;
20144;SDS011;10233;50.814;6.590;2023-03-01T03:05:00;9.38;;;4.88;;
20144;SDS011;10233;50.814;6.590;2023-03-01T03:06:16;10.52;;;5.05;;
20144;SDS011;10233;50.814;6.590;2023-03-01T03:07:16;8.27;;;5.00;;
20144;SDS011;10233;50.814;6.590;2023-03-01T03:08:17;8.35;;;4.75;;
20144;SDS011;10233;50.814;6.590;2023-03-01T03:09:24;9.80;;;5.03;;
20144;SDS011;10233;50.814;6.590;2023-03-01T03:10:26;10.57;;;5.03;;
20144;SDS011;10233;50.814;6.590;2023-03-01T03:11:29;11.27;;;5.50;;
20144;SDS011;10233;50.814;6.590;2023-03-01T03:12:30;8.50;;;5.03;;
20144;SDS011;10233;50.814;6.590;2023-03-01T03:13:31;8.82;;;5.07;;
20144;SDS011;10233;50.814;6.590;2023-03-01T03:14:32;9.55;;;4.85;;
20144;SDS011;10233;50.814;6.590;2023-03-01T03:15:36;8.75;;;4.95;;
20144;SDS011;10233;50.814;6.590;2023-03-01T03:16:42;7.82;;;4.35;;
20144;SDS011;10233;50.814;6.590;2023-03-01T03:17:44;8.77;;;4.82;;
20144;SDS011;10233;50.814;6.590;2023-03-01T03:18:44;10.40;;;5.28;;
20144;SDS011;10233;50.814;6.590;2023-03-01T03:19:45;8.63;;;4.63;;
20144;SDS011;10233;50.814;6.590;2023-03-01T03:20:45;9.30;;;5.13;;
20144;SDS011;10233;50.814;6.590;2023-03-01T03:21:46;10.25;;;5.53;;
20144;SDS011;10233;50.814;6.590;2023-03-01T03:22:47;9.97;;;5.10;;
20144;SDS011;10233;50.814;6.590;2023-03-01T03:23:49;9.48;;;4.65;;
20144;SDS011;10233;50.814;6.590;2023-03-01T03:24:49;9.68;;;4.90;;
20144;SDS011;10233;50.814;6.590;2023-03-01T03:25:50;9.40;;;4.90;;
20144;SDS011;10233;50.814;6.590;2023-03-01T03:26:51;9.13;;;5.15;;
20144;SDS011;10233;50.814;6.590;2023-03-01T03:27:52;8.95;;;4.85;;
20144;SDS011;10233;50.814;6.590;2023-03-01T03:28:59;8.52;;;4.72;;
20144;SDS011;10233;50.814;6.590;2023-03-01T03:30:00;9.35;;;5.03;;
20144;SDS011;10233;50.814;6.590;2023-03-01T03:31:01;9.17;;;4.87;;
20144;SDS011;10233;50.814;6.590;2023-03-01T03:32:04;10.25;;;5.15;;
20144;SDS011;10233;50.814;6.590;2023-03-01T03:33:05;11.27;;;5.27;;
20144;SDS011;10233;50.814;6.590;2023-03-01T03:34:06;9.65;;;5.07;;
20144;SDS011;10233;50.814;6.590;2023-03-01T03:35:07;10.77;;;5.37;;
20144;SDS011;10233;50.814;6.590;2023-03-01T03:36:14;10.38;;;4.93;;
20144;SDS011;10233;50.814;6.590;2023-03-01T03:37:24;12.05;;;4.95;;
20144;SDS011;10233;50.814;6.590;2023-03-01T03:38:43;10.05;;;5.32;;
20144;SDS011;10233;50.814;6.590;2023-03-01T03:39:47;8.70;;;4.90;;
20144;SDS011;10233;50.814;6.590;2023-03-01T03:40:48;8.43;;;4.70;;
20144;SDS011;10233;50.814;6.590;2023-03-01T03:41:50;14.25;;;6.05;;
20144;SDS011;10233;50.814;6.590;2023-03-01T03:42:51;10.57;;;5.45;;
20144;SDS011;10233;50.814;6.590;2023-03-01T03:43:51;10.00;;;5.40;;
20144;SDS011;10233;50.814;6.590;2023-03-01T03:44:52;11.07;;;5.27;;
20144;SDS011;10233;50.814;6.590;2023-03-01T03:45:52;11.50;;;5.75;;
20144;SDS011;10233;50.814;6.590;2023-03-01T03:46:53;9.90;;;5.25;;
20144;SDS011;10233;50.814;6.590;2023-03-01T03:47:54;12.02;;;5.60;;
20144;SDS011;10233;50.814;6.590;2023-03-01T03:48:54;13.13;;;5.47;;
20144;SDS011;10233;50.814;6.590;2023-03-01T03:49:55;12.35;;;6.18;;
20144;SDS011;10233;50.814;6.590;2023-03-01T03:50:55;9.17;;;5.27;;
20144;SDS011;10233;50.814;6.590;2023-03-01T03:51:56;13.57;;;6.13;;
20144;SDS011;10233;50.814;6.590;2023-03-01T03:52:57;11.65;;;5.90;;
20144;SDS011;10233;50.814;6.590;2023-03-01T03:53:57;9.65;;;5.10;;
20144;SDS011;10233;50.814;6.590;2023-03-01T03:54:58;11.50;;;5.17;;
20144;SDS011;10233;50.814;6.590;2023-03-01T03:55:58;14.75;;;5.70;;
20144;SDS011;10233;50.814;6.590;2023-03-01T03:56:59;12.47;;;6.23;;
20144;SDS011;10233;50.814;6.590;2023-03-01T03:58:01;11.43;;;5.38;;
20144;SDS011;10233;50.814;6.590;2023-03-01T03:59:06;12.77;;;5.57;;
20144;SDS011;10233;50.814;6.590;2023-03-01T04:00:08;9.90;;;5.45;;
20144;SDS011;10233;50.814;6.590;2023-03-01T04:01:15;11.80;;;5.93;;
20144;SDS011;10233;50.814;6.590;2023-03-01T04:02:15;10.63;;;5.50;;
20144;SDS011;10233;50.814;6.590;2023-03-01T04:03:23;12.98;;;6.13;;
20144;SDS011;10233;50.814;6.590;2023-03-01T04:04:25;12.48;;;5.75;;
20144;SDS011;10233;50.814;6.590;2023-03-01T04:05:25;14.15;;;6.03;;
20144;SDS011;10233;50.814;6.590;2023-03-01T04:06:26;12.85;;;5.50;;
20144;SDS011;10233;50.814;6.590;2023-03-01T04:07:27;9.97;;;5.43;;
20144;SDS011;10233;50.814;6.590;2023-03-01T04:08:27;10.95;;;5.68;;
20144;SDS011;10233;50.814;6.590;2023-03-01T04:09:28;9.50;;;5.05;;
20144;SDS011;10233;50.814;6.590;2023-03-01T04:10:31;9.95;;;5.43;;
20144;SDS011;10233;50.814;6.590;2023-03-01T04:11:40;10.07;;;5.43;;
20144;SDS011;10233;50.814;6.590;2023-03-01T04:12:41;9.52;;;5.72;;
20144;SDS011;10233;50.814;6.590;2023-03-01T04:13:43;9.98;;;5.22;;
20144;SDS011;10233;50.814;6.590;2023-03-01T04:14:43;10.18;;;6.07;;
20144;SDS011;10233;50.814;6.590;2023-03-01T04:15:44;9.03;;;4.80;;
20144;SDS011;10233;50.814;6.590;2023-03-01T04:16:45;11.17;;;6.00;;
20144;SDS011;10233;50.814;6.590;2023-03-01T04:17:46;10.93;;;5.50;;
20144;SDS011;10233;50.814;6.590;2023-03-01T04:18:46;11.88;;;5.40;;
20144;SDS011;10233;50.814;6.590;2023-03-01T04:19:47;10.98;;;5.90;;
20144;SDS011;10233;50.814;6.590;2023-03-01T04:20:48;14.27;;;6.38;;
20144;SDS011;10233;50.814;6.590;2023-03-01T04:21:53;11.73;;;5.63;;
20144;SDS011;10233;50.814;6.590;2023-03-01T04:23:35;15.02;;;5.63;;
20144;SDS011;10233;50.814;6.590;2023-03-01T04:24:19;9.70;;;5.00;;
20144;SDS011;10233;50.814;6.590;2023-03-01T04:25:20;11.75;;;5.78;;
20144;SDS011;10233;50.814;6.590;2023-03-01T04:26:20;12.30;;;6.17;;
20144;SDS011;10233;50.814;6.590;2023-03-01T04:27:21;12.23;;;5.75;;
20144;SDS011;10233;50.814;6.590;2023-03-01T04:28:26;9.93;;;5.20;;
20144;SDS011;10233;50.814;6.590;2023-03-01T04:29:29;10.45;;;5.70;;
20144;SDS011;10233;50.814;6.590;2023-03-01T04:30:30;14.73;;;5.55;;
20144;SDS011;10233;50.814;6.590;2023-03-01T04:31:35;12.65;;;6.22;;
20144;SDS011;10233;50.814;6.590;2023-03-01T04:32:36;10.53;;;5.20;;
20144;SDS011;10233;50.814;6.590;2023-03-01T04:33:36;10.17;;;5.77;;
20144;SDS011;10233;50.814;6.590;2023-03-01T04:34:37;12.57;;;5.53;;
20144;SDS011;10233;50.814;6.590;2023-03-01T04:35:37;13.37;;;5.47;;
20144;SDS011;10233;50.814;6.590;2023-03-01T04:36:38;12.20;;;5.03;;
20144;SDS011;10233;50.814;6.590;2023-03-01T04:37:40;11.48;;;5.55;;
20144;SDS011;10233;50.814;6.590;2023-03-01T04:38:41;9.80;;;5.60;;
20144;SDS011;10233;50.814;6.590;2023-03-01T04:39:42;11.57;;;6.10;;
20144;SDS011;10233;50.814;6.590;2023-03-01T04:40:47;9.07;;;5.40;;
20144;SDS011;10233;50.814;6.590;2023-03-01T04:41:47;11.73;;;5.97;;
20144;SDS011;10233;50.814;6.590;2023-03-01T04:42:48;12.10;;;5.73;;
20144;SDS011;10233;50.814;6.590;2023-03-01T04:43:49;10.57;;;5.57;;
20144;SDS011;10233;50.814;6.590;2023-03-01T04:44:50;11.50;;;5.63;;
20144;SDS011;10233;50.814;6.590;2023-03-01T04:45:51;10.88;;;5.60;;
20144;SDS011;10233;50.814;6.590;2023-03-01T04:46:51;11.10;;;6.03;;
20144;SDS011;10233;50.814;6.590;2023-03-01T04:47:54;10.98;;;5.38;;
20144;SDS011;10233;50.814;6.590;2023-03-01T04:48:58;9.60;;;5.13;;
20144;SDS011;10233;50.814;6.590;2023-03-01T04:49:58;9.23;;;5.18;;
20144;SDS011;10233;50.814;6.590;2023-03-01T04:50:59;10.43;;;5.50;;
20144;SDS011;10233;50.814;6.590;2023-03-01T04:52:00;9.43;;;5.63;;
20144;SDS011;10233;50.814;6.590;2023-03-01T04:53:03;9.82;;;5.38;;
20144;SDS011;10233;50.814;6.590;2023-03-01T04:54:03;9.80;;;5.13;;
20144;SDS011;10233;50.814;6.590;2023-03-01T04:55:08;10.32;;;5.28;;
20144;SDS011;10233;50.814;6.590;2023-03-01T04:56:09;11.68;;;5.43;;
20144;SDS011;10233;50.814;6.590;2023-03-01T04:57:10;11.57;;;5.90;;
20144;SDS011;10233;50.814;6.590;2023-03-01T04:58:10;10.93;;;5.15;;
20144;SDS011;10233;50.814;6.590;2023-03-01T04:59:11;10.27;;;5.37;;
20144;SDS011;10233;50.814;6.590;2023-03-01T05:00:13;11.23;;;5.53;;
20144;SDS011;10233;50.814;6.590;2023-03-01T05:01:20;13.20;;;5.78;;
20144;SDS011;10233;50.814;6.590;2023-03-01T05:02:20;9.75;;;5.47;;
20144;SDS011;10233;50.814;6.590;2023-03-01T05:03:21;11.50;;;5.60;;
20144;SDS011;10233;50.814;6.590;2023-03-01T05:04:22;12.75;;;5.50;;
20144;SDS011;10233;50.814;6.590;2023-03-01T05:06:31;10.40;;;5.20;;
20144;SDS011;10233;50.814;6.590;2023-03-01T05:07:32;12.43;;;5.75;;
20144;SDS011;10233;50.814;6.590;2023-03-01T05:08:33;9.30;;;5.43;;
20144;SDS011;10233;50.814;6.590;2023-03-01T05:09:36;10.00;;;5.40;;
20144;SDS011;10233;50.814;6.590;2023-03-01T05:10:38;10.80;;;5.28;;
20144;SDS011;10233;50.814;6.590;2023-03-01T05:11:39;9.10;;;5.40;;
20144;SDS011;10233;50.814;6.590;2023-03-01T05:12:39;12.00;;;5.70;;
20144;SDS011;10233;50.814;6.590;2023-03-01T05:13:40;10.05;;;5.05;;
20144;SDS011;10233;50.814;6.590;2023-03-01T05:14:41;10.95;;;5.30;;
20144;SDS011;10233;50.814;6.590;2023-03-01T05:15:41;12.88;;;6.03;;
20144;SDS011;10233;50.814;6.590;2023-03-01T05:16:42;10.98;;;5.80;;
20144;SDS011;10233;50.814;6.590;2023-03-01T05:17:43;11.43;;;5.80;;
20144;SDS011;10233;50.814;6.590;2023-03-01T05:18:43;14.50;;;6.33;;
20144;SDS011;10233;50.814;6.590;2023-03-01T05:19:44;10.05;;;5.20;;
20144;SDS011;10233;50.814;6.590;2023-03-01T05:20:44;12.57;;;5.90;;
20144;SDS011;10233;50.814;6.590;2023-03-01T05:21:45;13.35;;;6.40;;
20144;SDS011;10233;50.814;6.590;2023-03-01T05:23:04;10.38;;;4.90;;
20144;SDS011;10233;50.814;6.590;2023-03-01T05:24:05;10.43;;;5.57;;
20144;SDS011;10233;50.814;6.590;2023-03-01T05:25:10;9.77;;;5.50;;
20144;SDS011;10233;50.814;6.590;2023-03-01T05:26:11;12.03;;;5.90;;
20144;SDS011;10233;50.814;6.590;2023-03-01T05:27:12;18.48;;;6.97;;
20144;SDS011;10233;50.814;6.590;2023-03-01T05:28:13;14.60;;;7.30;;
20144;SDS011;10233;50.814;6.590;2023-03-01T05:29:14;13.03;;;6.33;;
20144;SDS011;10233;50.814;6.590;2023-03-01T05:30:14;12.03;;;5.80;;
20144;SDS011;10233;50.814;6.590;2023-03-01T05:31:15;12.50;;;7.15;;
20144;SDS011;10233;50.814;6.590;2023-03-01T05:32:15;17.95;;;10.30;;
20144;SDS011;10233;50.814;6.590;2023-03-01T05:33:17;16.25;;;9.07;;
20144;SDS011;10233;50.814;6.590;2023-03-01T05:34:19;13.10;;;7.43;;
20144;SDS011;10233;50.814;6.590;2023-03-01T05:35:23;12.88;;;6.75;;
20144;SDS011;10233;50.814;6.590;2023-03-01T05:36:24;26.75;;;14.63;;
20144;SDS011;10233;50.814;6.590;2023-03-01T05:37:25;19.07;;;11.47;;
20144;SDS011;10233;50.814;6.590;2023-03-01T05:38:25;13.17;;;7.03;;
20144;SDS011;10233;50.814;6.590;2023-03-01T05:39:26;13.67;;;6.20;;
20144;SDS011;10233;50.814;6.590;2023-03-01T05:40:28;15.50;;;7.35;;
20144;SDS011;10233;50.814;6.590;2023-03-01T05:41:29;13.65;;;7.47;;
20144;SDS011;10233;50.814;6.590;2023-03-01T05:42:29;13.40;;;7.18;;
20144;SDS011;10233;50.814;6.590;2023-03-01T05:43:31;12.03;;;6.53;;
20144;SDS011;10233;50.814;6.590;2023-03-01T05:44:33;17.58;;;9.07;;
20144;SDS011;10233;50.814;6.590;2023-03-01T05:45:35;15.77;;;7.60;;
20144;SDS011;10233;50.814;6.590;2023-03-01T05:46:37;19.05;;;7.50;;
20144;SDS011;10233;50.814;6.590;2023-03-01T05:47:39;15.23;;;7.97;;
20144;SDS011;10233;50.814;6.590;2023-03-01T05:48:43;14.48;;;7.55;;
20144;SDS011;10233;50.814;6.590;2023-03-01T05:49:43;19.15;;;9.45;;
20144;SDS011;10233;50.814;6.590;2023-03-01T05:50:44;21.10;;;9.57;;
20144;SDS011;10233;50.814;6.590;2023-03-01T05:51:48;20.42;;;9.93;;
20144;SDS011;10233;50.814;6.590;2023-03-01T05:52:51;16.10;;;8.15;;
20144;SDS011;10233;50.814;6.590;2023-03-01T05:54:10;14.85;;;7.03;;
20144;SDS011;10233;50.814;6.590;2023-03-01T05:55:11;22.27;;;11.55;;
20144;SDS011;10233;50.814;6.590;2023-03-01T05:56:11;16.87;;;8.83;;
20144;SDS011;10233;50.814;6.590;2023-03-01T05:57:12;16.93;;;8.53;;
20144;SDS011;10233;50.814;6.590;2023-03-01T05:58:14;16.40;;;7.75;;
20144;SDS011;10233;50.814;6.590;2023-03-01T05:59:16;13.90;;;6.25;;
20144;SDS011;10233;50.814;6.590;2023-03-01T06:00:18;15.00;;;6.60;;
20144;SDS011;10233;50.814;6.590;2023-03-01T06:01:19;11.45;;;5.70;;
20144;SDS011;10233;50.814;6.590;2023-03-01T06:02:20;15.73;;;6.70;;
20144;SDS011;10233;50.814;6.590;2023-03-01T06:03:21;17.77;;;7.60;;
20144;SDS011;10233;50.814;6.590;2023-03-01T06:04:21;14.10;;;7.10;;
20144;SDS011;10233;50.814;6.590;2023-03-01T06:05:22;15.15;;;6.80;;
20144;SDS011;10233;50.814;6.590;2023-03-01T06:06:23;15.07;;;6.85;;
20144;SDS011;10233;50.814;6.590;2023-03-01T06:07:24;19.27;;;7.43;;
20144;SDS011;10233;50.814;6.590;2023-03-01T06:08:25;20.40;;;9.23;;
20144;SDS011;10233;50.814;6.590;2023-03-01T06:09:27;16.13;;;7.32;;
20144;SDS011;10233;50.814;6.590;2023-03-01T06:10:27;17.85;;;8.93;;
20144;SDS011;10233;50.814;6.590;2023-03-01T06:11:28;15.10;;;7.30;;
20144;SDS011;10233;50.814;6.590;2023-03-01T06:12:32;14.77;;;7.37;;
20144;SDS011;10233;50.814;6.590;2023-03-01T06:13:33;15.85;;;7.15;;
20144;SDS011;10233;50.814;6.590;2023-03-01T06:14:34;14.55;;;7.88;;
20144;SDS011;10233;50.814;6.590;2023-03-01T06:15:34;16.20;;;7.20;;
20144;SDS011;10233;50.814;6.590;2023-03-01T06:16:35;16.03;;;8.00;;
20144;SDS011;10233;50.814;6.590;2023-03-01T06:17:36;12.70;;;6.93;;
20144;SDS011;10233;50.814;6.590;2023-03-01T06:18:38;13.48;;;7.20;;
20144;SDS011;10233;50.814;6.590;2023-03-01T06:19:39;19.70;;;8.07;;
20144;SDS011;10233;50.814;6.590;2023-03-01T06:20:40;13.23;;;7.00;;
20144;SDS011;10233;50.814;6.590;2023-03-01T06:21:40;14.63;;;7.30;;
20144;SDS011;10233;50.814;6.590;2023-03-01T06:22:41;19.15;;;6.97;;
20144;SDS011;10233;50.814;6.590;2023-03-01T06:23:42;17.10;;;6.75;;
20144;SDS011;10233;50.814;6.590;2023-03-01T06:24:42;14.13;;;7.07;;